EXS77GT EGHH-LEAL
Flight info
| Callsign | EXS77GT |
|---|---|
| Flight time | 2h 7m |
| Altitude | 31000 |
| Route | THRED Z171 LELNA DCT DOMOK UT260 UPALO/N0451F350 UP87 TERPO UM616 TUPAR DCT CNA DCT SECHE DCT AGN DCT ANETO DCT POSSY DCT XIMPE DCT RIMES N860 VLC |
| Aircraft | B738/M-SDE2E3FGHIRWXY/LB1 |
Departure
| Time | 2026-04-28 13:19 |
|---|---|
| Airport | Bournemouth Airport (EGHH) |
Arrival
| Time | 2026-04-28 15:26 |
|---|---|
| Airport | Alicante-Elche Miguel Hernández Airport (LEAL) |
| Time | Latitude | Longitude | Altitude | Speed | Heading |
|---|---|---|---|---|---|
| 2026-04-28 12:24 | 50.77805 | -1.83374 | 41 ft | 0 kts | 86° |
| 2026-04-28 13:05 | 50.77804 | -1.83403 | 42 ft | 4 kts | 90° |
| 2026-04-28 13:06 | 50.77807 | -1.83444 | 41 ft | 4 kts | 111° |
| 2026-04-28 13:06 | 50.77820 | -1.83471 | 38 ft | 3 kts | 171° |
| 2026-04-28 13:06 | 50.77824 | -1.83473 | 38 ft | 1 kts | 176° |
| 2026-04-28 13:11 | 50.77807 | -1.83469 | 42 ft | 3 kts | 174° |
| 2026-04-28 13:11 | 50.77786 | -1.83466 | 40 ft | 3 kts | 174° |
| 2026-04-28 13:11 | 50.77762 | -1.83463 | 42 ft | 4 kts | 177° |
| 2026-04-28 13:11 | 50.77723 | -1.83468 | 42 ft | 8 kts | 190° |
| 2026-04-28 13:12 | 50.77659 | -1.83475 | 42 ft | 11 kts | 184° |
| 2026-04-28 13:12 | 50.77583 | -1.83543 | 42 ft | 14 kts | 245° |
| 2026-04-28 13:12 | 50.77575 | -1.83694 | 42 ft | 14 kts | 272° |
| 2026-04-28 13:12 | 50.77584 | -1.83849 | 42 ft | 15 kts | 281° |
| 2026-04-28 13:13 | 50.77607 | -1.84015 | 42 ft | 16 kts | 283° |
| 2026-04-28 13:13 | 50.77636 | -1.84189 | 42 ft | 17 kts | 289° |
| 2026-04-28 13:13 | 50.77670 | -1.84348 | 42 ft | 13 kts | 288° |
| 2026-04-28 13:13 | 50.77694 | -1.84480 | 44 ft | 12 kts | 283° |
| 2026-04-28 13:14 | 50.77710 | -1.84611 | 43 ft | 12 kts | 279° |
| 2026-04-28 13:14 | 50.77727 | -1.84738 | 42 ft | 11 kts | 286° |
| 2026-04-28 13:14 | 50.77741 | -1.84802 | 42 ft | 1 kts | 294° |
| 2026-04-28 13:14 | 50.77741 | -1.84803 | 42 ft | 0 kts | 295° |
| 2026-04-28 13:15 | 50.77743 | -1.84807 | 42 ft | 2 kts | 295° |
| 2026-04-28 13:15 | 50.77761 | -1.84863 | 42 ft | 9 kts | 300° |
| 2026-04-28 13:16 | 50.77794 | -1.84955 | 45 ft | 10 kts | 299° |
| 2026-04-28 13:16 | 50.77841 | -1.85087 | 46 ft | 16 kts | 297° |
| 2026-04-28 13:16 | 50.77840 | -1.85257 | 45 ft | 16 kts | 255° |
| 2026-04-28 13:16 | 50.77813 | -1.85420 | 47 ft | 15 kts | 255° |
| 2026-04-28 13:17 | 50.77788 | -1.85575 | 45 ft | 14 kts | 254° |
| 2026-04-28 13:17 | 50.77738 | -1.85700 | 43 ft | 12 kts | 212° |
| 2026-04-28 13:17 | 50.77721 | -1.85777 | 44 ft | 8 kts | 314° |
| 2026-04-28 13:17 | 50.77757 | -1.85757 | 44 ft | 6 kts | 67° |
| 2026-04-28 13:18 | 50.77759 | -1.85745 | 44 ft | 0 kts | 76° |
| 2026-04-28 13:18 | 50.77771 | -1.85675 | 44 ft | 25 kts | 75° |
| 2026-04-28 13:18 | 50.77879 | -1.85023 | 47 ft | 98 kts | 74° |
| 2026-04-28 13:19 | 50.78112 | -1.83649 | 45 ft | 159 kts | 75° |
| 2026-04-28 13:19 | 50.78401 | -1.81769 | 442 ft | 184 kts | 72° |
| 2026-04-28 13:19 | 50.78680 | -1.79835 | 1463 ft | 174 kts | 74° |
| 2026-04-28 13:19 | 50.78929 | -1.78059 | 2400 ft | 160 kts | 74° |
| 2026-04-28 13:20 | 50.79192 | -1.76291 | 2676 ft | 171 kts | 73° |
| 2026-04-28 13:20 | 50.79351 | -1.74404 | 3057 ft | 178 kts | 94° |
| 2026-04-28 13:20 | 50.78808 | -1.72564 | 3504 ft | 198 kts | 126° |
| 2026-04-28 13:20 | 50.77670 | -1.71332 | 4154 ft | 206 kts | 153° |
| 2026-04-28 13:21 | 50.76203 | -1.70850 | 4676 ft | 217 kts | 168° |
| 2026-04-28 13:21 | 50.74685 | -1.70601 | 5034 ft | 232 kts | 166° |
| 2026-04-28 13:21 | 50.73032 | -1.70264 | 5379 ft | 244 kts | 167° |
| 2026-04-28 13:21 | 50.71325 | -1.69935 | 5880 ft | 249 kts | 167° |
| 2026-04-28 13:22 | 50.69601 | -1.69619 | 6435 ft | 250 kts | 169° |
| 2026-04-28 13:22 | 50.67860 | -1.69314 | 6937 ft | 253 kts | 169° |
| 2026-04-28 13:22 | 50.66103 | -1.69017 | 7490 ft | 254 kts | 169° |
| 2026-04-28 13:22 | 50.64342 | -1.68726 | 8060 ft | 255 kts | 169° |
| 2026-04-28 13:23 | 50.62569 | -1.68436 | 8249 ft | 255 kts | 169° |
| 2026-04-28 13:23 | 50.60803 | -1.68150 | 8250 ft | 255 kts | 170° |
| 2026-04-28 13:23 | 50.59026 | -1.67862 | 8258 ft | 257 kts | 169° |
| 2026-04-28 13:23 | 50.57241 | -1.67576 | 8248 ft | 258 kts | 169° |
| 2026-04-28 13:24 | 50.55441 | -1.67287 | 8252 ft | 265 kts | 169° |
| 2026-04-28 13:24 | 50.53570 | -1.66983 | 8548 ft | 280 kts | 169° |
| 2026-04-28 13:24 | 50.51589 | -1.66667 | 9277 ft | 284 kts | 170° |
| 2026-04-28 13:24 | 50.49632 | -1.66777 | 10075 ft | 293 kts | 193° |
| 2026-04-28 13:25 | 50.47724 | -1.68153 | 10693 ft | 306 kts | 205° |
| 2026-04-28 13:25 | 50.45808 | -1.69799 | 10879 ft | 330 kts | 206° |
| 2026-04-28 13:25 | 50.43740 | -1.71615 | 11108 ft | 350 kts | 206° |
| 2026-04-28 13:25 | 50.41581 | -1.73517 | 11661 ft | 358 kts | 207° |
| 2026-04-28 13:26 | 50.39398 | -1.75434 | 12399 ft | 361 kts | 207° |
| 2026-04-28 13:26 | 50.37193 | -1.77359 | 13126 ft | 364 kts | 207° |
| 2026-04-28 13:26 | 50.34966 | -1.79293 | 13822 ft | 369 kts | 207° |
| 2026-04-28 13:26 | 50.32706 | -1.81246 | 14465 ft | 373 kts | 207° |
| 2026-04-28 13:27 | 50.30428 | -1.83209 | 15151 ft | 375 kts | 207° |
| 2026-04-28 13:27 | 50.28119 | -1.85194 | 15661 ft | 382 kts | 207° |
| 2026-04-28 13:27 | 50.25769 | -1.87210 | 16222 ft | 387 kts | 207° |
| 2026-04-28 13:27 | 50.23398 | -1.89243 | 16869 ft | 390 kts | 207° |
| 2026-04-28 13:28 | 50.21011 | -1.91287 | 17496 ft | 393 kts | 207° |
| 2026-04-28 13:28 | 50.18595 | -1.93353 | 18094 ft | 397 kts | 207° |
| 2026-04-28 13:28 | 50.16184 | -1.95412 | 18657 ft | 402 kts | 207° |
| 2026-04-28 13:28 | 50.13721 | -1.97514 | 19178 ft | 405 kts | 207° |
| 2026-04-28 13:29 | 50.11229 | -1.99638 | 19667 ft | 410 kts | 207° |
| 2026-04-28 13:29 | 50.08717 | -2.01776 | 20166 ft | 414 kts | 207° |
| 2026-04-28 13:29 | 50.06172 | -2.03940 | 20663 ft | 418 kts | 207° |
| 2026-04-28 13:29 | 50.03610 | -2.06116 | 21131 ft | 422 kts | 207° |
| 2026-04-28 13:30 | 50.01008 | -2.08279 | 21596 ft | 426 kts | 203° |
| 2026-04-28 13:30 | 49.98231 | -2.09882 | 22050 ft | 427 kts | 192° |
| 2026-04-28 13:30 | 49.95316 | -2.10717 | 22519 ft | 426 kts | 181° |
| 2026-04-28 13:30 | 49.92368 | -2.10809 | 23152 ft | 422 kts | 175° |
| 2026-04-28 13:31 | 49.86459 | -2.10647 | 24048 ft | 428 kts | 176° |
| 2026-04-28 13:31 | 49.83468 | -2.10591 | 24391 ft | 432 kts | 176° |
| 2026-04-28 13:31 | 49.80446 | -2.10557 | 24761 ft | 435 kts | 176° |
| 2026-04-28 13:32 | 49.77450 | -2.10535 | 25129 ft | 437 kts | 176° |
| 2026-04-28 13:32 | 49.74357 | -2.10510 | 25516 ft | 440 kts | 175° |
| 2026-04-28 13:32 | 49.71352 | -2.10096 | 25852 ft | 438 kts | 167° |
| 2026-04-28 13:32 | 49.68407 | -2.08929 | 26277 ft | 436 kts | 160° |
| 2026-04-28 13:33 | 49.65490 | -2.07600 | 26618 ft | 439 kts | 160° |
| 2026-04-28 13:33 | 49.62547 | -2.06253 | 26910 ft | 443 kts | 161° |
| 2026-04-28 13:33 | 49.59584 | -2.04911 | 27241 ft | 445 kts | 162° |
| 2026-04-28 13:33 | 49.56594 | -2.03575 | 27497 ft | 449 kts | 162° |
| 2026-04-28 13:34 | 49.53582 | -2.02243 | 27839 ft | 451 kts | 161° |
| 2026-04-28 13:34 | 49.50560 | -2.00916 | 28200 ft | 452 kts | 162° |
| 2026-04-28 13:34 | 49.47527 | -1.99594 | 28588 ft | 453 kts | 163° |
| 2026-04-28 13:34 | 49.44487 | -1.98268 | 28923 ft | 454 kts | 162° |
| 2026-04-28 13:35 | 49.41462 | -1.96952 | 29091 ft | 460 kts | 162° |
| 2026-04-28 13:35 | 49.38373 | -1.95607 | 29371 ft | 462 kts | 163° |
| 2026-04-28 13:35 | 49.35274 | -1.94261 | 29663 ft | 464 kts | 163° |
| 2026-04-28 13:35 | 49.32175 | -1.92916 | 30111 ft | 462 kts | 163° |
| 2026-04-28 13:36 | 49.29082 | -1.91576 | 30425 ft | 463 kts | 162° |
| 2026-04-28 13:36 | 49.25973 | -1.90229 | 30753 ft | 461 kts | 163° |
| 2026-04-28 13:36 | 49.22901 | -1.88902 | 31146 ft | 459 kts | 163° |
| 2026-04-28 13:36 | 49.19801 | -1.87563 | 31173 ft | 466 kts | 163° |
| 2026-04-28 13:37 | 49.13544 | -1.84866 | 31179 ft | 466 kts | 164° |
| 2026-04-28 13:37 | 49.07361 | -1.82208 | 31176 ft | 459 kts | 164° |
| 2026-04-28 13:38 | 49.01226 | -1.79575 | 31168 ft | 458 kts | 165° |
| 2026-04-28 13:38 | 48.95135 | -1.76969 | 31177 ft | 457 kts | 165° |
| 2026-04-28 13:39 | 48.88914 | -1.75006 | 31355 ft | 456 kts | 179° |
| 2026-04-28 13:39 | 48.85778 | -1.74907 | 31943 ft | 448 kts | 182° |
| 2026-04-28 13:39 | 48.82646 | -1.74924 | 32083 ft | 453 kts | 181° |
| 2026-04-28 13:40 | 48.76282 | -1.74980 | 32409 ft | 458 kts | 180° |
| 2026-04-28 13:40 | 48.73099 | -1.74978 | 32749 ft | 456 kts | 180° |
| 2026-04-28 13:40 | 48.69918 | -1.74958 | 33006 ft | 457 kts | 180° |
| 2026-04-28 13:41 | 48.66735 | -1.74926 | 33260 ft | 457 kts | 180° |
| 2026-04-28 13:41 | 48.63583 | -1.74888 | 33550 ft | 456 kts | 180° |
| 2026-04-28 13:41 | 48.60419 | -1.74847 | 33989 ft | 452 kts | 181° |
| 2026-04-28 13:41 | 48.57273 | -1.74807 | 34264 ft | 452 kts | 181° |
| 2026-04-28 13:42 | 48.54126 | -1.74767 | 34392 ft | 454 kts | 181° |
| 2026-04-28 13:42 | 48.50965 | -1.74729 | 34577 ft | 454 kts | 180° |
| 2026-04-28 13:42 | 48.47808 | -1.74691 | 34805 ft | 453 kts | 180° |
| 2026-04-28 13:42 | 48.44653 | -1.74652 | 35000 ft | 454 kts | 181° |
| 2026-04-28 13:43 | 48.41504 | -1.74614 | 35116 ft | 452 kts | 181° |
| 2026-04-28 13:43 | 48.38355 | -1.74573 | 35117 ft | 450 kts | 181° |
| 2026-04-28 13:43 | 48.32106 | -1.74502 | 35110 ft | 449 kts | 181° |
| 2026-04-28 13:44 | 48.25853 | -1.74429 | 35094 ft | 449 kts | 181° |
| 2026-04-28 13:44 | 48.19592 | -1.74352 | 35076 ft | 450 kts | 182° |
| 2026-04-28 13:45 | 48.13369 | -1.74278 | 35078 ft | 451 kts | 182° |
| 2026-04-28 13:45 | 48.07076 | -1.74522 | 35258 ft | 451 kts | 192° |
| 2026-04-28 13:46 | 48.04027 | -1.75506 | 35570 ft | 445 kts | 201° |
| 2026-04-28 13:46 | 48.01108 | -1.76999 | 35873 ft | 441 kts | 201° |
| 2026-04-28 13:46 | 47.98228 | -1.78536 | 36224 ft | 436 kts | 202° |
| 2026-04-28 13:46 | 47.95381 | -1.80054 | 36576 ft | 432 kts | 202° |
| 2026-04-28 13:47 | 47.92558 | -1.81539 | 36936 ft | 428 kts | 201° |
| 2026-04-28 13:47 | 47.89755 | -1.82995 | 37084 ft | 428 kts | 202° |
| 2026-04-28 13:47 | 47.84122 | -1.85882 | 37080 ft | 435 kts | 201° |
| 2026-04-28 13:48 | 47.78535 | -1.88727 | 37074 ft | 440 kts | 201° |
| 2026-04-28 13:48 | 47.72692 | -1.91697 | 37088 ft | 446 kts | 201° |
| 2026-04-28 13:49 | 47.66767 | -1.94663 | 37076 ft | 452 kts | 197° |
| 2026-04-28 13:49 | 47.60501 | -1.95785 | 37060 ft | 460 kts | 179° |
| 2026-04-28 13:50 | 47.54100 | -1.95028 | 37049 ft | 462 kts | 178° |
| 2026-04-28 13:50 | 47.47695 | -1.94252 | 37054 ft | 461 kts | 179° |
| 2026-04-28 13:51 | 47.41297 | -1.93573 | 37044 ft | 460 kts | 179° |
| 2026-04-28 13:51 | 47.38122 | -1.93090 | 36760 ft | 459 kts | 170° |
| 2026-04-28 13:51 | 47.35120 | -1.91523 | 36484 ft | 458 kts | 156° |
| 2026-04-28 13:52 | 47.32358 | -1.89176 | 36268 ft | 458 kts | 150° |
| 2026-04-28 13:52 | 47.29795 | -1.86367 | 36014 ft | 462 kts | 141° |
| 2026-04-28 13:52 | 47.27500 | -1.83037 | 35788 ft | 463 kts | 137° |
| 2026-04-28 13:52 | 47.25314 | -1.79638 | 35553 ft | 463 kts | 136° |
| 2026-04-28 13:53 | 47.23117 | -1.76173 | 35314 ft | 464 kts | 136° |
| 2026-04-28 13:53 | 47.20911 | -1.72707 | 35120 ft | 464 kts | 137° |
| 2026-04-28 13:53 | 47.16456 | -1.65808 | 35025 ft | 465 kts | 138° |
| 2026-04-28 13:54 | 47.11972 | -1.58949 | 35037 ft | 463 kts | 139° |
| 2026-04-28 13:54 | 47.08265 | -1.53304 | 35044 ft | 461 kts | 139° |
| 2026-04-28 13:55 | 47.03818 | -1.46543 | 35031 ft | 460 kts | 139° |
| 2026-04-28 13:55 | 46.99372 | -1.39794 | 35033 ft | 459 kts | 139° |
| 2026-04-28 13:56 | 46.94847 | -1.33231 | 35010 ft | 456 kts | 143° |
| 2026-04-28 13:56 | 46.90108 | -1.27105 | 35026 ft | 454 kts | 145° |
| 2026-04-28 13:57 | 46.85373 | -1.21060 | 35020 ft | 456 kts | 145° |
| 2026-04-28 13:57 | 46.80609 | -1.14910 | 35028 ft | 457 kts | 144° |
| 2026-04-28 13:58 | 46.75845 | -1.08733 | 35026 ft | 459 kts | 144° |
| 2026-04-28 13:58 | 46.71059 | -1.02539 | 35027 ft | 461 kts | 144° |
| 2026-04-28 13:59 | 46.66252 | -0.96336 | 35019 ft | 462 kts | 144° |
| 2026-04-28 13:59 | 46.61430 | -0.90126 | 35014 ft | 462 kts | 144° |
| 2026-04-28 14:00 | 46.56640 | -0.83973 | 35013 ft | 462 kts | 145° |
| 2026-04-28 14:00 | 46.51833 | -0.77780 | 34999 ft | 461 kts | 145° |
| 2026-04-28 14:01 | 46.47035 | -0.71606 | 35004 ft | 460 kts | 145° |
| 2026-04-28 14:01 | 46.41955 | -0.66188 | 35011 ft | 445 kts | 160° |
| 2026-04-28 14:02 | 46.36272 | -0.63092 | 34996 ft | 433 kts | 170° |
| 2026-04-28 14:02 | 46.30516 | -0.60534 | 34986 ft | 432 kts | 170° |
| 2026-04-28 14:03 | 46.24778 | -0.57945 | 34996 ft | 432 kts | 169° |
| 2026-04-28 14:03 | 46.19051 | -0.55325 | 34999 ft | 431 kts | 169° |
| 2026-04-28 14:04 | 46.13342 | -0.52706 | 34989 ft | 430 kts | 169° |
| 2026-04-28 14:04 | 46.07681 | -0.50114 | 34982 ft | 429 kts | 169° |
| 2026-04-28 14:05 | 46.02001 | -0.47520 | 34988 ft | 428 kts | 169° |
| 2026-04-28 14:05 | 45.96321 | -0.44932 | 34965 ft | 428 kts | 169° |
| 2026-04-28 14:06 | 45.90650 | -0.42353 | 34976 ft | 427 kts | 169° |
| 2026-04-28 14:06 | 45.84985 | -0.39782 | 34976 ft | 427 kts | 169° |
| 2026-04-28 14:07 | 45.79317 | -0.37216 | 34977 ft | 427 kts | 169° |
| 2026-04-28 14:07 | 45.73647 | -0.34651 | 34967 ft | 427 kts | 169° |
| 2026-04-28 14:08 | 45.67983 | -0.32098 | 34968 ft | 427 kts | 169° |
| 2026-04-28 14:08 | 45.62419 | -0.28960 | 34976 ft | 434 kts | 161° |
| 2026-04-28 14:09 | 45.57021 | -0.25165 | 34940 ft | 436 kts | 160° |
| 2026-04-28 14:09 | 45.51589 | -0.21321 | 34959 ft | 436 kts | 160° |
| 2026-04-28 14:10 | 45.46136 | -0.17530 | 34977 ft | 435 kts | 161° |
| 2026-04-28 14:10 | 45.40670 | -0.13773 | 34967 ft | 436 kts | 161° |
| 2026-04-28 14:11 | 45.35200 | -0.10031 | 34967 ft | 436 kts | 161° |
| 2026-04-28 14:11 | 45.29730 | -0.06297 | 34977 ft | 436 kts | 161° |
| 2026-04-28 14:12 | 45.24283 | -0.02586 | 34967 ft | 437 kts | 161° |
| 2026-04-28 14:12 | 45.18795 | 0.01147 | 34950 ft | 437 kts | 161° |
| 2026-04-28 14:13 | 45.13317 | 0.04865 | 34973 ft | 436 kts | 161° |
| 2026-04-28 14:13 | 45.07845 | 0.08570 | 34987 ft | 436 kts | 161° |
| 2026-04-28 14:14 | 45.02359 | 0.12276 | 34996 ft | 438 kts | 161° |
| 2026-04-28 14:14 | 44.96850 | 0.15990 | 34981 ft | 438 kts | 160° |
| 2026-04-28 14:15 | 44.91395 | 0.19662 | 34994 ft | 436 kts | 160° |
| 2026-04-28 14:15 | 44.85915 | 0.23342 | 34990 ft | 436 kts | 161° |
| 2026-04-28 14:16 | 44.80440 | 0.27010 | 34998 ft | 435 kts | 161° |
| 2026-04-28 14:16 | 44.74965 | 0.30670 | 34995 ft | 435 kts | 161° |
| 2026-04-28 14:17 | 44.69503 | 0.34314 | 35003 ft | 434 kts | 161° |
| 2026-04-28 14:17 | 44.64039 | 0.37952 | 35001 ft | 434 kts | 161° |
| 2026-04-28 14:18 | 44.58581 | 0.41578 | 34995 ft | 433 kts | 161° |
| 2026-04-28 14:18 | 44.53132 | 0.45191 | 35024 ft | 434 kts | 161° |
| 2026-04-28 14:19 | 44.47651 | 0.48816 | 35001 ft | 436 kts | 161° |
| 2026-04-28 14:19 | 44.42171 | 0.52435 | 35018 ft | 436 kts | 161° |
| 2026-04-28 14:20 | 44.36714 | 0.56030 | 35006 ft | 437 kts | 160° |
| 2026-04-28 14:20 | 44.31212 | 0.59649 | 35008 ft | 436 kts | 160° |
| 2026-04-28 14:21 | 44.25722 | 0.63253 | 34965 ft | 435 kts | 161° |
| 2026-04-28 14:21 | 44.20235 | 0.66846 | 34958 ft | 434 kts | 160° |
| 2026-04-28 14:22 | 44.14773 | 0.70416 | 34970 ft | 433 kts | 160° |
| 2026-04-28 14:22 | 44.09310 | 0.73978 | 34961 ft | 433 kts | 160° |
| 2026-04-28 14:23 | 44.03851 | 0.77533 | 34968 ft | 432 kts | 160° |
| 2026-04-28 14:23 | 43.98445 | 0.81048 | 34991 ft | 431 kts | 160° |
| 2026-04-28 14:24 | 43.93009 | 0.84570 | 34999 ft | 430 kts | 161° |
| 2026-04-28 14:24 | 43.90213 | 0.85946 | 34998 ft | 422 kts | 173° |
| 2026-04-28 14:24 | 43.87329 | 0.86459 | 35014 ft | 415 kts | 183° |
| 2026-04-28 14:25 | 43.84466 | 0.86261 | 35005 ft | 409 kts | 194° |
| 2026-04-28 14:25 | 43.81672 | 0.85516 | 34991 ft | 408 kts | 195° |
| 2026-04-28 14:25 | 43.76096 | 0.83945 | 34997 ft | 409 kts | 195° |
| 2026-04-28 14:26 | 43.70492 | 0.82397 | 34998 ft | 411 kts | 194° |
| 2026-04-28 14:26 | 43.64864 | 0.80878 | 34994 ft | 413 kts | 194° |
| 2026-04-28 14:27 | 43.59254 | 0.79380 | 34988 ft | 414 kts | 194° |
| 2026-04-28 14:27 | 43.53582 | 0.77873 | 34991 ft | 415 kts | 194° |
| 2026-04-28 14:28 | 43.47894 | 0.76364 | 34995 ft | 417 kts | 194° |
| 2026-04-28 14:28 | 43.42190 | 0.74853 | 34965 ft | 418 kts | 193° |
| 2026-04-28 14:29 | 43.36463 | 0.73339 | 34974 ft | 419 kts | 193° |
| 2026-04-28 14:29 | 43.30731 | 0.71826 | 34986 ft | 420 kts | 193° |
| 2026-04-28 14:30 | 43.24987 | 0.70314 | 34984 ft | 420 kts | 193° |
| 2026-04-28 14:30 | 43.19274 | 0.68812 | 34973 ft | 421 kts | 193° |
| 2026-04-28 14:31 | 43.13504 | 0.67298 | 34989 ft | 422 kts | 193° |
| 2026-04-28 14:31 | 43.07729 | 0.65785 | 34990 ft | 423 kts | 193° |
| 2026-04-28 14:32 | 43.01931 | 0.64270 | 34993 ft | 424 kts | 193° |
| 2026-04-28 14:32 | 42.96127 | 0.62756 | 34987 ft | 425 kts | 193° |
| 2026-04-28 14:33 | 42.90304 | 0.61241 | 34994 ft | 425 kts | 193° |
| 2026-04-28 14:33 | 42.84490 | 0.59729 | 34993 ft | 425 kts | 193° |
| 2026-04-28 14:34 | 42.75839 | 0.57484 | 35004 ft | 422 kts | 194° |
| 2026-04-28 14:35 | 42.70132 | 0.55636 | 35000 ft | 421 kts | 197° |
| 2026-04-28 14:35 | 42.64463 | 0.53595 | 35013 ft | 421 kts | 197° |
| 2026-04-28 14:36 | 42.58796 | 0.51579 | 34998 ft | 421 kts | 197° |
| 2026-04-28 14:36 | 42.53123 | 0.49606 | 34995 ft | 420 kts | 197° |
| 2026-04-28 14:37 | 42.47448 | 0.47652 | 34985 ft | 421 kts | 197° |
| 2026-04-28 14:37 | 42.41771 | 0.45704 | 34980 ft | 420 kts | 197° |
| 2026-04-28 14:38 | 42.36138 | 0.43775 | 34965 ft | 420 kts | 197° |
| 2026-04-28 14:38 | 42.30469 | 0.41836 | 34971 ft | 420 kts | 197° |
| 2026-04-28 14:39 | 42.24799 | 0.39900 | 34973 ft | 420 kts | 197° |
| 2026-04-28 14:39 | 42.19120 | 0.37965 | 34954 ft | 420 kts | 197° |
| 2026-04-28 14:40 | 42.13451 | 0.36037 | 34957 ft | 420 kts | 197° |
| 2026-04-28 14:40 | 42.07772 | 0.34109 | 34949 ft | 420 kts | 197° |
| 2026-04-28 14:41 | 42.02097 | 0.32186 | 34952 ft | 420 kts | 197° |
| 2026-04-28 14:41 | 41.97379 | 0.30590 | 34942 ft | 420 kts | 197° |
| 2026-04-28 14:42 | 41.90790 | 0.28364 | 34952 ft | 420 kts | 197° |
| 2026-04-28 14:42 | 41.86043 | 0.26764 | 34949 ft | 420 kts | 197° |
| 2026-04-28 14:43 | 41.80372 | 0.24856 | 34948 ft | 420 kts | 197° |
| 2026-04-28 14:43 | 41.74744 | 0.22965 | 34941 ft | 420 kts | 196° |
| 2026-04-28 14:44 | 41.69077 | 0.21066 | 34946 ft | 420 kts | 196° |
| 2026-04-28 14:44 | 41.63399 | 0.19165 | 34944 ft | 420 kts | 196° |
| 2026-04-28 14:45 | 41.57722 | 0.17269 | 34948 ft | 420 kts | 196° |
| 2026-04-28 14:45 | 41.52051 | 0.15378 | 34943 ft | 420 kts | 196° |
| 2026-04-28 14:46 | 41.46375 | 0.13489 | 34941 ft | 420 kts | 196° |
| 2026-04-28 14:46 | 41.40706 | 0.11605 | 34946 ft | 420 kts | 196° |
| 2026-04-28 14:47 | 41.35027 | 0.09722 | 34940 ft | 420 kts | 196° |
| 2026-04-28 14:47 | 41.29390 | 0.07856 | 34937 ft | 420 kts | 196° |
| 2026-04-28 14:48 | 41.23700 | 0.05976 | 34935 ft | 420 kts | 196° |
| 2026-04-28 14:48 | 41.18024 | 0.04105 | 34941 ft | 420 kts | 196° |
| 2026-04-28 14:49 | 41.12344 | 0.02234 | 34936 ft | 420 kts | 196° |
| 2026-04-28 14:49 | 41.06586 | 0.00764 | 34953 ft | 423 kts | 189° |
| 2026-04-28 14:50 | 41.00726 | -0.00029 | 34951 ft | 424 kts | 188° |
| 2026-04-28 14:50 | 40.94894 | -0.00797 | 34950 ft | 423 kts | 188° |
| 2026-04-28 14:51 | 40.89022 | -0.01621 | 34904 ft | 423 kts | 189° |
| 2026-04-28 14:51 | 40.83158 | -0.02467 | 34912 ft | 424 kts | 189° |
| 2026-04-28 14:52 | 40.77293 | -0.03316 | 34919 ft | 424 kts | 189° |
| 2026-04-28 14:52 | 40.71420 | -0.04162 | 34929 ft | 425 kts | 189° |
| 2026-04-28 14:53 | 40.65578 | -0.05001 | 34931 ft | 425 kts | 189° |
| 2026-04-28 14:53 | 40.59695 | -0.05844 | 34938 ft | 425 kts | 189° |
| 2026-04-28 14:54 | 40.53858 | -0.07016 | 34927 ft | 423 kts | 198° |
| 2026-04-28 14:54 | 40.48243 | -0.09292 | 34937 ft | 422 kts | 200° |
| 2026-04-28 14:55 | 40.42640 | -0.11587 | 34910 ft | 417 kts | 199° |
| 2026-04-28 14:55 | 40.39891 | -0.12683 | 34755 ft | 409 kts | 199° |
| 2026-04-28 14:55 | 40.37190 | -0.13750 | 34508 ft | 401 kts | 199° |
| 2026-04-28 14:55 | 40.34527 | -0.14797 | 34132 ft | 399 kts | 199° |
| 2026-04-28 14:56 | 40.31881 | -0.15836 | 33762 ft | 396 kts | 199° |
| 2026-04-28 14:56 | 40.29254 | -0.16867 | 33363 ft | 393 kts | 199° |
| 2026-04-28 14:56 | 40.26643 | -0.17892 | 32981 ft | 390 kts | 199° |
| 2026-04-28 14:56 | 40.24055 | -0.18910 | 32626 ft | 387 kts | 199° |
| 2026-04-28 14:57 | 40.21524 | -0.19911 | 32269 ft | 384 kts | 199° |
| 2026-04-28 14:57 | 40.19804 | -0.20592 | 32032 ft | 382 kts | 199° |
| 2026-04-28 14:57 | 40.16447 | -0.21921 | 31580 ft | 378 kts | 199° |
| 2026-04-28 14:57 | 40.13933 | -0.22915 | 31233 ft | 376 kts | 198° |
| 2026-04-28 14:58 | 40.11434 | -0.23901 | 30895 ft | 374 kts | 198° |
| 2026-04-28 14:58 | 40.08946 | -0.24881 | 30556 ft | 372 kts | 198° |
| 2026-04-28 14:58 | 40.06474 | -0.25855 | 30244 ft | 370 kts | 198° |
| 2026-04-28 14:58 | 40.04016 | -0.26823 | 29880 ft | 368 kts | 198° |
| 2026-04-28 14:59 | 40.01571 | -0.27785 | 29478 ft | 366 kts | 198° |
| 2026-04-28 14:59 | 39.99142 | -0.28737 | 29112 ft | 363 kts | 198° |
| 2026-04-28 14:59 | 39.96732 | -0.29667 | 28760 ft | 360 kts | 198° |
| 2026-04-28 14:59 | 39.94342 | -0.30586 | 28423 ft | 357 kts | 198° |
| 2026-04-28 15:00 | 39.91969 | -0.31499 | 28071 ft | 354 kts | 198° |
| 2026-04-28 15:00 | 39.89616 | -0.32404 | 27728 ft | 351 kts | 198° |
| 2026-04-28 15:00 | 39.87281 | -0.33306 | 27360 ft | 349 kts | 198° |
| 2026-04-28 15:00 | 39.84937 | -0.34220 | 26809 ft | 353 kts | 198° |
| 2026-04-28 15:01 | 39.82578 | -0.35141 | 26369 ft | 354 kts | 198° |
| 2026-04-28 15:01 | 39.80227 | -0.36058 | 26037 ft | 351 kts | 197° |
| 2026-04-28 15:01 | 39.77891 | -0.36967 | 25702 ft | 349 kts | 197° |
| 2026-04-28 15:01 | 39.75576 | -0.37867 | 25375 ft | 347 kts | 197° |
| 2026-04-28 15:02 | 39.73272 | -0.38762 | 25056 ft | 344 kts | 197° |
| 2026-04-28 15:02 | 39.70979 | -0.39652 | 24735 ft | 342 kts | 197° |
| 2026-04-28 15:02 | 39.68720 | -0.40528 | 24580 ft | 334 kts | 197° |
| 2026-04-28 15:02 | 39.66536 | -0.41374 | 24311 ft | 331 kts | 197° |
| 2026-04-28 15:03 | 39.64338 | -0.42225 | 24048 ft | 328 kts | 197° |
| 2026-04-28 15:03 | 39.62153 | -0.43070 | 23728 ft | 327 kts | 197° |
| 2026-04-28 15:03 | 39.59976 | -0.43912 | 23397 ft | 326 kts | 197° |
| 2026-04-28 15:03 | 39.57807 | -0.44750 | 23026 ft | 324 kts | 197° |
| 2026-04-28 15:04 | 39.55651 | -0.45582 | 22681 ft | 322 kts | 198° |
| 2026-04-28 15:04 | 39.53508 | -0.46409 | 22356 ft | 320 kts | 198° |
| 2026-04-28 15:04 | 39.51378 | -0.47231 | 22037 ft | 318 kts | 198° |
| 2026-04-28 15:04 | 39.49267 | -0.48045 | 21724 ft | 316 kts | 198° |
| 2026-04-28 15:05 | 39.47166 | -0.48836 | 21453 ft | 312 kts | 197° |
| 2026-04-28 15:05 | 39.45081 | -0.49586 | 21141 ft | 310 kts | 197° |
| 2026-04-28 15:05 | 39.43002 | -0.50324 | 20826 ft | 309 kts | 197° |
| 2026-04-28 15:05 | 39.40938 | -0.51056 | 20519 ft | 307 kts | 197° |
| 2026-04-28 15:06 | 39.38883 | -0.51784 | 20210 ft | 306 kts | 197° |
| 2026-04-28 15:06 | 39.36834 | -0.52511 | 19900 ft | 304 kts | 197° |
| 2026-04-28 15:06 | 39.34802 | -0.53233 | 19585 ft | 303 kts | 197° |
| 2026-04-28 15:06 | 39.32771 | -0.53955 | 19273 ft | 302 kts | 197° |
| 2026-04-28 15:07 | 39.30746 | -0.54675 | 18973 ft | 301 kts | 197° |
| 2026-04-28 15:07 | 39.28728 | -0.55391 | 18657 ft | 300 kts | 197° |
| 2026-04-28 15:07 | 39.26734 | -0.56100 | 18354 ft | 300 kts | 197° |
| 2026-04-28 15:07 | 39.24727 | -0.56812 | 18016 ft | 299 kts | 198° |
| 2026-04-28 15:08 | 39.22725 | -0.57523 | 17682 ft | 298 kts | 198° |
| 2026-04-28 15:08 | 39.20728 | -0.58231 | 17351 ft | 297 kts | 198° |
| 2026-04-28 15:08 | 39.18744 | -0.58935 | 17038 ft | 295 kts | 198° |
| 2026-04-28 15:08 | 39.16770 | -0.59634 | 16729 ft | 293 kts | 198° |
| 2026-04-28 15:09 | 39.14810 | -0.60328 | 16426 ft | 291 kts | 198° |
| 2026-04-28 15:09 | 39.12860 | -0.61018 | 16127 ft | 289 kts | 198° |
| 2026-04-28 15:09 | 39.10944 | -0.61696 | 15819 ft | 287 kts | 198° |
| 2026-04-28 15:09 | 39.09641 | -0.62157 | 15626 ft | 287 kts | 198° |
| 2026-04-28 15:10 | 39.07093 | -0.63057 | 15218 ft | 286 kts | 198° |
| 2026-04-28 15:10 | 39.05176 | -0.63735 | 14935 ft | 285 kts | 198° |
| 2026-04-28 15:10 | 39.03261 | -0.64411 | 14636 ft | 285 kts | 198° |
| 2026-04-28 15:10 | 39.01342 | -0.65088 | 14332 ft | 286 kts | 198° |
| 2026-04-28 15:11 | 38.99429 | -0.65762 | 14028 ft | 286 kts | 198° |
| 2026-04-28 15:11 | 38.97512 | -0.66438 | 13719 ft | 285 kts | 198° |
| 2026-04-28 15:11 | 38.95597 | -0.67112 | 13403 ft | 285 kts | 198° |
| 2026-04-28 15:11 | 38.93688 | -0.67784 | 13075 ft | 284 kts | 198° |
| 2026-04-28 15:12 | 38.91782 | -0.68455 | 12762 ft | 283 kts | 197° |
| 2026-04-28 15:12 | 38.89883 | -0.69122 | 12458 ft | 282 kts | 197° |
| 2026-04-28 15:12 | 38.88018 | -0.69778 | 12150 ft | 281 kts | 197° |
| 2026-04-28 15:12 | 38.86112 | -0.70448 | 11861 ft | 280 kts | 197° |
| 2026-04-28 15:13 | 38.84265 | -0.71096 | 11566 ft | 278 kts | 197° |
| 2026-04-28 15:13 | 38.82401 | -0.71749 | 11288 ft | 277 kts | 197° |
| 2026-04-28 15:13 | 38.80548 | -0.72399 | 10998 ft | 276 kts | 197° |
| 2026-04-28 15:13 | 38.78698 | -0.73048 | 10713 ft | 275 kts | 196° |
| 2026-04-28 15:14 | 38.76856 | -0.73693 | 10430 ft | 273 kts | 196° |
| 2026-04-28 15:14 | 38.75022 | -0.74334 | 10141 ft | 272 kts | 196° |
| 2026-04-28 15:14 | 38.73215 | -0.74966 | 10006 ft | 265 kts | 196° |
| 2026-04-28 15:14 | 38.71448 | -0.75584 | 9783 ft | 263 kts | 196° |
| 2026-04-28 15:15 | 38.69687 | -0.76199 | 9491 ft | 262 kts | 196° |
| 2026-04-28 15:15 | 38.68527 | -0.76605 | 9327 ft | 261 kts | 196° |
| 2026-04-28 15:15 | 38.66204 | -0.77416 | 8953 ft | 260 kts | 196° |
| 2026-04-28 15:15 | 38.64458 | -0.78025 | 8670 ft | 259 kts | 195° |
| 2026-04-28 15:16 | 38.62720 | -0.78631 | 8410 ft | 258 kts | 195° |
| 2026-04-28 15:16 | 38.60988 | -0.79235 | 8130 ft | 257 kts | 194° |
| 2026-04-28 15:16 | 38.59286 | -0.79829 | 8028 ft | 249 kts | 194° |
| 2026-04-28 15:16 | 38.57627 | -0.80406 | 7895 ft | 244 kts | 194° |
| 2026-04-28 15:17 | 38.56007 | -0.80970 | 7771 ft | 238 kts | 194° |
| 2026-04-28 15:17 | 38.54431 | -0.81519 | 7657 ft | 233 kts | 195° |
| 2026-04-28 15:17 | 38.52859 | -0.82080 | 7445 ft | 235 kts | 194° |
| 2026-04-28 15:17 | 38.51287 | -0.82657 | 7210 ft | 236 kts | 195° |
| 2026-04-28 15:18 | 38.49714 | -0.83238 | 6972 ft | 235 kts | 194° |
| 2026-04-28 15:18 | 38.48140 | -0.83817 | 6734 ft | 237 kts | 194° |
| 2026-04-28 15:18 | 38.46551 | -0.84400 | 6482 ft | 239 kts | 194° |
| 2026-04-28 15:18 | 38.44970 | -0.84980 | 6222 ft | 240 kts | 194° |
| 2026-04-28 15:19 | 38.43366 | -0.85568 | 5965 ft | 240 kts | 194° |
| 2026-04-28 15:19 | 38.41762 | -0.86156 | 5762 ft | 238 kts | 194° |
| 2026-04-28 15:19 | 38.40175 | -0.86738 | 5567 ft | 238 kts | 193° |
| 2026-04-28 15:19 | 38.38582 | -0.87319 | 5342 ft | 238 kts | 194° |
| 2026-04-28 15:20 | 38.37013 | -0.87894 | 5241 ft | 232 kts | 193° |
| 2026-04-28 15:20 | 38.35444 | -0.88467 | 5026 ft | 234 kts | 191° |
| 2026-04-28 15:20 | 38.33860 | -0.88495 | 4779 ft | 227 kts | 155° |
| 2026-04-28 15:20 | 38.32704 | -0.87286 | 4658 ft | 218 kts | 116° |
| 2026-04-28 15:21 | 38.32338 | -0.85442 | 4420 ft | 216 kts | 97° |
| 2026-04-28 15:21 | 38.32120 | -0.83550 | 4135 ft | 213 kts | 100° |
| 2026-04-28 15:21 | 38.31855 | -0.81701 | 3843 ft | 210 kts | 101° |
| 2026-04-28 15:21 | 38.31600 | -0.79926 | 3570 ft | 202 kts | 101° |
| 2026-04-28 15:22 | 38.31355 | -0.78201 | 3308 ft | 194 kts | 101° |
| 2026-04-28 15:22 | 38.31121 | -0.76537 | 3062 ft | 186 kts | 103° |
| 2026-04-28 15:22 | 38.30889 | -0.74912 | 2822 ft | 187 kts | 99° |
| 2026-04-28 15:22 | 38.30662 | -0.73289 | 2548 ft | 185 kts | 100° |
| 2026-04-28 15:23 | 38.30438 | -0.71691 | 2315 ft | 182 kts | 100° |
| 2026-04-28 15:23 | 38.30219 | -0.70135 | 2074 ft | 174 kts | 99° |
| 2026-04-28 15:23 | 38.30014 | -0.68680 | 1854 ft | 162 kts | 99° |
| 2026-04-28 15:23 | 38.29825 | -0.67336 | 1669 ft | 153 kts | 99° |
| 2026-04-28 15:24 | 38.29642 | -0.66015 | 1465 ft | 151 kts | 101° |
| 2026-04-28 15:24 | 38.29458 | -0.64707 | 1257 ft | 149 kts | 100° |
| 2026-04-28 15:24 | 38.29277 | -0.63423 | 1079 ft | 145 kts | 99° |
| 2026-04-28 15:24 | 38.29092 | -0.62148 | 909 ft | 148 kts | 98° |
| 2026-04-28 15:25 | 38.28918 | -0.60862 | 736 ft | 148 kts | 98° |
| 2026-04-28 15:25 | 38.28739 | -0.59564 | 511 ft | 148 kts | 98° |
| 2026-04-28 15:25 | 38.28560 | -0.58288 | 330 ft | 147 kts | 99° |
| 2026-04-28 15:25 | 38.28383 | -0.57034 | 154 ft | 142 kts | 98° |
| 2026-04-28 15:26 | 38.28232 | -0.55924 | 105 ft | 102 kts | 100° |
| 2026-04-28 15:26 | 38.28144 | -0.55298 | 85 ft | 51 kts | 100° |
| 2026-04-28 15:26 | 38.28141 | -0.54910 | 70 ft | 36 kts | 75° |
| 2026-04-28 15:26 | 38.28178 | -0.54774 | 69 ft | 0 kts | 69° |
| 2026-04-28 15:27 | 38.28179 | -0.54770 | 69 ft | 1 kts | 69° |
| 2026-04-28 15:27 | 38.28184 | -0.54755 | 61 ft | 0 kts | 69° |
| 2026-04-28 15:28 | 38.28184 | -0.54754 | 62 ft | 1 kts | 69° |
| 2026-04-28 15:28 | 38.28187 | -0.54742 | 65 ft | 4 kts | 69° |
| 2026-04-28 15:28 | 38.28215 | -0.54709 | 64 ft | 6 kts | 13° |
| 2026-04-28 15:28 | 38.28245 | -0.54742 | 68 ft | 6 kts | 285° |
| 2026-04-28 15:29 | 38.28252 | -0.54797 | 70 ft | 6 kts | 279° |
| 2026-04-28 15:29 | 38.28255 | -0.54817 | 65 ft | 0 kts | 280° |
| 2026-04-28 15:30 | 38.28259 | -0.54845 | 70 ft | 4 kts | 280° |
| 2026-04-28 15:30 | 38.28264 | -0.54877 | 73 ft | 4 kts | 280° |
| 2026-04-28 15:30 | 38.28272 | -0.54935 | 71 ft | 8 kts | 279° |
| 2026-04-28 15:30 | 38.28285 | -0.55026 | 75 ft | 13 kts | 279° |
| 2026-04-28 15:31 | 38.28303 | -0.55164 | 85 ft | 18 kts | 280° |
| 2026-04-28 15:31 | 38.28328 | -0.55346 | 92 ft | 23 kts | 279° |
| 2026-04-28 15:31 | 38.28356 | -0.55539 | 97 ft | 17 kts | 280° |
| 2026-04-28 15:31 | 38.28438 | -0.55604 | 97 ft | 13 kts | 10° |
| 2026-04-28 15:32 | 38.28486 | -0.55528 | 96 ft | 13 kts | 95° |
| 2026-04-28 15:32 | 38.28474 | -0.55435 | 92 ft | 6 kts | 101° |
| 2026-04-28 15:32 | 38.28485 | -0.55420 | 93 ft | 4 kts | 22° |
| 2026-04-28 15:32 | 38.28536 | -0.55407 | 88 ft | 4 kts | 11° |
| 2026-04-28 15:33 | 38.28549 | -0.55404 | 89 ft | 0 kts | 10° |
| 2026-04-28 15:33 | 38.28550 | -0.55403 | 90 ft | 0 kts | 10° |